Highland Valley (176, 972) Station Data

Red Flag Warning: No
Fire Weather Zone: 250
SDGE Region: Ramona
Lat/Lon: 33.029/-116.936

Observations

Time Wind Speed/Gust Temp(F) RH Fuel Moist Fuel Temp(F) Dewpt(F) Tmax(F) Tmin(F) Accum Precip 10-min Precip SL Press(mb)
4/26 2:50am 111 2 G 3 46° 85% - - 42° 50.6° 44.4° - - -
4/26 2:40am 176 2 G 3 47° 87% - - 43° 50.6° 44.4° - - -
4/26 2:30am 227 2 G 3 46° 88% - - 43° 50.6° 44.4° - - -
4/26 2:20am 161 2 G 3 45° 83% - - 40° 50.6° 44.4° - - -
4/26 2:10am 349 0 G 1 46° 79% - - 40° 50.6° 45.4° - - -
4/26 2:00am 300 1 G 4 49° 80% - - 43° 50.6° 45.9° - - -
4/26 1:50am 261 2 G 4 47° 85% - - 43° 50.6° 45.9° - - -
4/26 1:40am 79 0 G 1 46° 84% - - 42° 50.6° 45.9° - - -
4/26 1:30am 140 1 G 2 47° 85% - - 43° 50.6° 46.3° - - -
4/26 1:20am 163 1 G 3 47° 84% - - 42° 50.6° 46.3° - - -
4/26 1:10am 341 2 G 3 47° 80% - - 42° 50.6° 46.5° - - -
4/26 1:00am 308 2 G 2 49° 78% - - 43° 50.6° 48.3° - - -
4/26 12:50am 171 3 G 4 49° 80% - - 43° 50.6° 48.4° - - -
4/26 12:40am 197 1 G 3 49° 76% - - 42° 50.6° 48.4° - - -
4/26 12:30am 300 2 G 2 50° 79% - - 43° 50.6° 48.4° - - -
4/26 12:20am 335 1 G 1 49° 81% - - 43° 49° 48.4° - - -
4/26 12:10am 333 1 G 2 49° 80% - - 43° 48.9° 48.4° - - -
4/26 12:00am 44 0 G 1 50° 76% - - 43° 66° 48.7° - - -
4/25 11:50pm 137 1 G 2 51° 77% - - 44° 66° 49.4° - - -
4/25 11:40pm 139 1 G 3 51° 75% - - 43° 66° 49.4° - - -
4/25 11:30pm 199 1 G 1 53° 70% - - 44° 66° 49.4° - - -
4/25 11:20pm 224 2 G 3 53° 74% - - 45° 66° 49.4° - - -
4/25 11:10pm 246 1 G 3 50° 82% - - 45° 66° 49.4° - - -
4/25 11:00pm 82 0 G 1 50° 81% - - 44° 66° 49.7° - - -
4/25 10:50pm 90 2 G 2 50° 78% - - 43° 66° 49.7° - - -
4/25 10:40pm 128 2 G 3 53° 71% - - 43° 66° 50.9° - - -
4/25 10:30pm 161 1 G 3 53° 72% - - 44° 66° 51.9° - - -
4/25 10:20pm 161 2 G 3 52° 72% - - 44° 66° 51.9° - - -
4/25 10:10pm 132 2 G 3 53° 71% - - 44° 66° 52° - - -
4/25 10:00pm 157 2 G 3 53° 71% - - 44° 66° 52.5° - - -
4/25 9:50pm 206 1 G 2 54° 70% - - 44° 66° 52.8° - - -
4/25 9:40pm 213 1 G 2 54° 73% - - 45° 66° 53.3° - - -
4/25 9:30pm 153 1 G 2 54° 72% - - 45° 66° 53.3° - - -
4/25 9:20pm 0 0 G 0 54° 72% - - 45° 66° 53.3° - - -
4/25 9:10pm 98 2 G 3 54° 69% - - 44° 66° 53.3° - - -
4/25 9:00pm 287 2 G 2 55° 67% - - 45° 66° 53.3° - - -
4/25 8:50pm 351 1 G 1 56° 65% - - 44° 66° 53.3° - - -
4/25 8:40pm 202 0 G 1 56° 63% - - 44° 66° 53.3° - - -
4/25 8:30pm 160 2 G 2 55° 68% - - 45° 66° 53.3° - - -
4/25 8:20pm 294 2 G 4 57° 65% - - 45° 66° 53.3° - - -
4/25 8:10pm 253 1 G 4 57° 64% - - 45° 66° 53.3° - - -
4/25 8:00pm 184 2 G 3 57° 64% - - 45° 66° 53.3° - - -
4/25 7:50pm 238 3 G 5 58° 64% - - 46° 66° 53.3° - - -
4/25 7:40pm 252 3 G 7 57° 65% - - 45° 66° 53.3° - - -
4/25 7:30pm 288 6 G 7 58° 63% - - 45° 66° 53.3° - - -
4/25 7:20pm 287 7 G 10 58° 61% - - 45° 66° 53.3° - - -
4/25 7:10pm 287 7 G 10 59° 60% - - 45° 66° 53.3° - - -
4/25 7:00pm 293 9 G 12 59° 59% - - 45° 66° 53.3° - - -
4/25 6:50pm 296 8 G 11 60° 58% - - 45° 66° 53.3° - - -
4/25 6:40pm 282 9 G 14 60° 58% - - 45° 66° 53.3° - - -
4/25 6:30pm 278 10 G 13 60° 58% - - 46° 66° 53.3° - - -
4/25 6:20pm 278 11 G 15 61° 58% - - 46° 66° 53.3° - - -
4/25 6:10pm 279 10 G 14 61° 58% - - 46° 66° 53.3° - - -
4/25 6:00pm 274 9 G 12 61° 57% - - 46° 66° 53.3° - - -
4/25 5:50pm 259 8 G 12 62° 56% - - 46° 66° 53.3° - - -
4/25 5:40pm 275 9 G 13 62° 56% - - 46° 66° 53.3° - - -
4/25 5:30pm 264 10 G 15 63° 54% - - 46° 66° 53.3° - - -
4/25 5:20pm 264 9 G 14 63° 55% - - 47° 66° 53.3° - - -
4/25 5:10pm 261 9 G 14 63° 57% - - 47° 66° 53.3° - - -
4/25 5:00pm 274 9 G 14 63° 58% - - 48° 66° 53.3° - - -
4/25 4:50pm 273 9 G 14 63° 59% - - 49° 66° 53.3° - - -
4/25 4:40pm 277 9 G 13 63° 59% - - 49° 66° 53.3° - - -
4/25 4:30pm 275 11 G 15 64° 59% - - 49° 66° 53.3° - - -
4/25 4:20pm 279 10 G 15 64° 59% - - 49° 66° 53.3° - - -
4/25 4:10pm 263 9 G 14 63° 59% - - 49° 66° 53.3° - - -
4/25 4:00pm 265 9 G 15 64° 58% - - 48° 66° 53.3° - - -
4/25 3:50pm 284 10 G 15 64° 56% - - 48° 66° 53.3° - - -
4/25 3:40pm 276 11 G 15 64° 56% - - 48° 66° 53.3° - - -
4/25 3:30pm 274 10 G 14 65° 55% - - 48° 66° 53.3° - - -
4/25 3:20pm 279 10 G 14 64° 55% - - 48° 66° 53.3° - - -
4/25 3:10pm 277 9 G 16 64° 56% - - 48° 66° 53.3° - - -
4/25 3:00pm 269 9 G 15 64° 56% - - 48° 66° 53.3° - - -
4/25 2:50pm 259 8 G 12 63° 57% - - 48° 66° 53.3° - - -
4/25 2:40pm 258 9 G 13 63° 57% - - 48° 66° 53.3° - - -
4/25 2:30pm 272 9 G 13 64° 57% - - 48° 66° 53.3° - - -
4/25 2:20pm 266 9 G 12 64° 57% - - 49° 66° 53.3° - - -
4/25 2:10pm 279 10 G 15 64° 58% - - 49° 66° 53.3° - - -
4/25 2:00pm 260 9 G 16 64° 58% - - 49° 66° 53.3° - - -
4/25 1:50pm 278 10 G 15 65° 56% - - 49° 66° 53.3° - - -
4/25 1:40pm 275 10 G 14 65° 56% - - 49° 66° 53.3° - - -
4/25 1:30pm 288 10 G 15 64° 55% - - 48° 65.9° 53.3° - - -
4/25 1:20pm 272 9 G 15 65° 55% - - 48° 65.9° 53.3° - - -
4/25 1:10pm 267 10 G 17 64° 58% - - 49° 65.9° 53.3° - - -
4/25 1:00pm 247 10 G 16 64° 59% - - 49° 65.9° 53.3° - - -
4/25 12:50pm 268 10 G 14 64° 57% - - 49° 65.9° 53.3° - - -
4/25 12:40pm 269 10 G 16 64° 55% - - 48° 65.9° 53.3° - - -
4/25 12:30pm 249 8 G 13 65° 52% - - 47° 65.9° 53.3° - - -
4/25 12:20pm 277 9 G 16 65° 51% - - 46° 65.9° 53.3° - - -
4/25 12:10pm 294 9 G 17 64° 52% - - 46° 65.2° 53.3° - - -
4/25 12:00pm 267 8 G 14 64° 51% - - 46° 65.2° 53.3° - - -
4/25 11:50am 265 7 G 12 63° 52% - - 46° 64.1° 53.3° - - -
4/25 11:40am 283 7 G 12 63° 52% - - 45° 63.9° 53.3° - - -
4/25 11:30am 279 7 G 13 63° 52% - - 45° 63.9° 53.3° - - -
4/25 11:20am 299 3 G 7 63° 53% - - 46° 63.9° 53.3° - - -
4/25 11:10am 222 3 G 8 63° 53% - - 46° 63.5° 53.3° - - -
4/25 11:00am 65 3 G 6 63° 54% - - 46° 63.5° 53.3° - - -
4/25 10:50am 315 5 G 11 63° 53% - - 45° 63.5° 53.3° - - -
4/25 10:40am 240 5 G 10 62° 53% - - 45° 63.5° 53.3° - - -
4/25 10:30am 291 4 G 8 62° 54% - - 45° 62.9° 53.3° - - -
4/25 10:20am 296 2 G 10 61° 55% - - 45° 62.2° 53.3° - - -
4/25 10:10am 272 4 G 9 61° 56% - - 45° 62.2° 53.3° - - -
4/25 10:00am 235 4 G 7 60° 59% - - 46° 61.4° 53.3° - - -
4/25 9:50am 236 6 G 9 60° 62% - - 47° 61.4° 53.3° - - -
4/25 9:40am 207 5 G 9 61° 61% - - 47° 61.4° 53.3° - - -
4/25 9:30am 198 4 G 10 60° 63% - - 48° 61.4° 53.3° - - -
4/25 9:20am 206 6 G 9 58° 69% - - 48° 59.3° 53.3° - - -
4/25 9:10am 211 7 G 11 58° 72% - - 49° 58.5° 53.3° - - -
4/25 9:00am 213 7 G 10 58° 70% - - 48° 58.5° 53.3° - - -
4/25 8:50am 219 7 G 11 57° 72% - - 48° 58.5° 53.3° - - -
4/25 8:40am 214 7 G 11 58° 72% - - 49° 58.5° 53.3° - - -
4/25 8:30am 216 9 G 13 57° 74% - - 49° 57.8° 53.3° - - -
4/25 8:20am 211 7 G 10 57° 74% - - 49° 57.7° 53.3° - - -
4/25 8:10am 175 6 G 10 57° 76% - - 49° 57.5° 53.3° - - -
4/25 8:00am 174 7 G 12 56° 78% - - 50° 56.9° 53.3° - - -
4/25 7:50am 171 7 G 11 56° 80% - - 50° 56.2° 53.3° - - -
4/25 7:40am 177 6 G 10 55° 81% - - 50° 55.5° 53.3° - - -
4/25 7:30am 185 6 G 10 55° 82% - - 50° 55.1° 53.3° - - -
4/25 7:20am 188 6 G 10 55° 83% - - 50° 55° 53.3° - - -
4/25 7:10am 187 6 G 11 55° 83% - - 50° 54.9° 53.3° - - -
4/25 7:00am 183 5 G 8 54° 85% - - 50° 54.9° 53.3° - - -
4/25 6:50am 186 5 G 11 54° 86% - - 50° 54.9° 53.3° - - -
4/25 6:40am 190 5 G 11 54° 87% - - 50° 54.9° 53.3° - - -
4/25 6:30am 189 5 G 10 54° 88% - - 50° 54.9° 53.3° - - -
4/25 6:20am 186 5 G 10 54° 88% - - 50° 54.9° 53.3° - - -
4/25 6:10am 188 6 G 9 54° 87% - - 50° 54.9° 53.4° - - -
4/25 6:00am 192 4 G 8 54° 87% - - 50° 54.9° 53.4° - - -
4/25 5:50am 184 5 G 9 54° 87% - - 50° 54.9° 53.4° - - -
4/25 5:40am 185 5 G 9 54° 86% - - 50° 54.9° 53.4° - - -
4/25 5:30am 186 5 G 10 54° 85% - - 49° 54.9° 53.4° - - -
4/25 5:20am 178 6 G 10 54° 84% - - 49° 54.9° 53.4° - - -
4/25 5:10am 188 5 G 9 54° 84% - - 49° 54.9° 53.4° - - -
4/25 5:00am 186 6 G 10 54° 85% - - 49° 54.9° 53.4° - - -
4/25 4:50am 185 7 G 12 54° 85% - - 49° 54.9° 53.4° - - -
4/25 4:40am 188 6 G 11 54° 85% - - 49° 54.9° 53.4° - - -
4/25 4:30am 185 7 G 11 54° 84% - - 49° 54.9° 53.4° - - -
4/25 4:20am 183 7 G 10 54° 84% - - 49° 54.9° 53.5° - - -
4/25 4:10am 179 8 G 14 54° 84% - - 49° 54.9° 53.5° - - -
4/25 4:00am 179 7 G 12 54° 84% - - 49° 54.9° 53.5° - - -
4/25 3:50am 186 7 G 13 54° 83% - - 49° 54.9° 53.5° - - -
4/25 3:40am 189 7 G 13 54° 83% - - 49° 54.9° 53.6° - - -
4/25 3:30am 187 8 G 12 54° 82% - - 49° 54.9° 53.6° - - -
4/25 3:20am 177 7 G 13 54° 81% - - 49° 54.9° 53.6° - - -
4/25 3:10am 184 5 G 9 54° 81% - - 49° 54.9° 53.6° - - -
4/25 3:00am 182 6 G 10 54° 81% - - 49° 54.9° 53.6° - - -
4/25 2:50am 197 5 G 9 54° 81% - - 49° 54.9° 53.6° - - -
4/25 2:40am 204 5 G 8 55° 81% - - 49° 54.9° 53.6° - - -
4/25 2:30am 206 6 G 10 55° 82% - - 49° 54.9° 53.6° - - -
4/25 2:20am 198 4 G 8 54° 83% - - 50° 54.9° 53.6° - - -
4/25 2:10am 170 6 G 10 54° 84% - - 50° 54.9° 53.6° - - -
4/25 2:00am 185 5 G 10 55° 83% - - 50° 54.9° 53.6° - - -
4/25 1:50am 182 6 G 11 54° 83% - - 49° 54.9° 53.6° - - -
4/25 1:40am 171 6 G 10 54° 84% - - 49° 54.9° 53.6° - - -
4/25 1:30am 173 6 G 10 54° 84% - - 49° 54.9° 53.6° - - -
4/25 1:20am 176 7 G 11 54° 84% - - 49° 54.9° 53.6° - - -
4/25 1:10am 180 5 G 9 54° 82% - - 49° 54.9° 53.8° - - -
4/25 1:00am 190 4 G 8 54° 81% - - 48° 54.9° 54° - - -
4/25 12:50am 205 7 G 11 54° 80% - - 48° 54.9° 54.2° - - -
4/25 12:40am 200 6 G 11 54° 80% - - 48° 54.9° 54.3° - - -
4/25 12:30am 198 5 G 10 55° 81% - - 49° 54.9° 54.4° - - -
4/25 12:20am 199 4 G 11 55° 83% - - 50° 54.9° 54.5° - - -
4/25 12:10am 183 4 G 8 55° 84% - - 50° 54.9° 54.6° - - -
4/25 12:00am 156 8 G 12 55° 83% - - 50° 69.2° 50.9° - - -
4/24 11:50pm 177 5 G 8 55° 80% - - 49° 69.2° 50.9° - - -
4/24 11:40pm 190 4 G 6 55° 80% - - 49° 69.2° 50.9° - - -
4/24 11:30pm 210 4 G 7 55° 80% - - 49° 69.2° 50.9° - - -
4/24 11:20pm 241 3 G 7 55° 81% - - 49° 69.2° 50.9° - - -
4/24 11:10pm 273 4 G 6 55° 81% - - 49° 69.2° 50.9° - - -
4/24 11:00pm 246 3 G 6 55° 80% - - 49° 69.2° 50.9° - - -
4/24 10:50pm 202 3 G 6 55° 81% - - 49° 69.2° 50.9° - - -
4/24 10:40pm 180 4 G 9 55° 81% - - 49° 69.2° 50.9° - - -
4/24 10:30pm 177 6 G 10 55° 81% - - 49° 69.2° 50.9° - - -
4/24 10:20pm 182 6 G 11 55° 81% - - 50° 69.2° 50.9° - - -
4/24 10:10pm 171 5 G 8 55° 80% - - 50° 69.2° 50.9° - - -
4/24 10:00pm 195 2 G 5 56° 80% - - 50° 69.2° 50.9° - - -
4/24 9:50pm 179 2 G 4 56° 80% - - 50° 69.2° 50.9° - - -
4/24 9:40pm 193 2 G 3 56° 80% - - 50° 69.2° 50.9° - - -
4/24 9:30pm 204 3 G 5 56° 79% - - 50° 69.2° 50.9° - - -
4/24 9:20pm 211 3 G 6 56° 79% - - 50° 69.2° 50.9° - - -
4/24 9:10pm 229 5 G 7 56° 80% - - 50° 69.2° 50.9° - - -
4/24 9:00pm 220 5 G 8 57° 80% - - 50° 69.2° 50.9° - - -
4/24 8:50pm 258 4 G 7 57° 80% - - 51° 69.2° 50.9° - - -
4/24 8:40pm 277 2 G 4 56° 80% - - 50° 69.2° 50.9° - - -
4/24 8:30pm 281 2 G 3 56° 80% - - 50° 69.2° 50.9° - - -
4/24 8:20pm 279 3 G 4 56° 80% - - 50° 69.2° 50.9° - - -
4/24 8:10pm 288 2 G 4 56° 80% - - 50° 69.2° 50.9° - - -
4/24 8:00pm 286 2 G 4 57° 79% - - 50° 69.2° 50.9° - - -
4/24 7:50pm 264 5 G 8 57° 79% - - 50° 69.2° 50.9° - - -
4/24 7:40pm 281 4 G 7 57° 79% - - 50° 69.2° 50.9° - - -
4/24 7:30pm 271 5 G 7 57° 78% - - 50° 69.2° 50.9° - - -
4/24 7:20pm 269 5 G 8 58° 77% - - 50° 69.2° 50.9° - - -
4/24 7:10pm 284 7 G 10 58° 76% - - 50° 69.2° 50.9° - - -
4/24 7:00pm 292 8 G 10 58° 75% - - 51° 69.2° 50.9° - - -
4/24 6:50pm 283 6 G 10 59° 74% - - 51° 69.2° 50.9° - - -
4/24 6:40pm 270 7 G 10 59° 73% - - 51° 69.2° 50.9° - - -
4/24 6:30pm 272 8 G 13 60° 73% - - 51° 69.2° 50.9° - - -
4/24 6:20pm 260 7 G 13 61° 69% - - 51° 69.2° 50.9° - - -
4/24 6:10pm 239 5 G 10 62° 67% - - 51° 69.2° 50.9° - - -
4/24 6:00pm 223 6 G 10 61° 69% - - 51° 69.2° 50.9° - - -